createdAt,value
2022-11-29T00:00:52.482Z,79.20
2022-11-29T00:05:54.564Z,79.00
2022-11-29T00:10:56.385Z,78.89
2022-11-29T00:16:03.344Z,79.19
2022-11-29T00:21:09.412Z,79.09
2022-11-29T00:26:11.408Z,78.86
2022-11-29T00:31:22.353Z,79.13
2022-11-29T00:36:24.662Z,78.89
2022-11-29T00:41:26.660Z,78.79
2022-11-29T00:46:31.444Z,78.99
2022-11-29T00:51:33.214Z,78.98
2022-11-29T00:56:35.205Z,78.79
2022-11-29T01:01:37.271Z,78.81
2022-11-29T01:06:39.474Z,78.92
2022-11-29T01:11:41.427Z,78.75
2022-11-29T01:16:43.255Z,78.66
2022-11-29T01:21:45.159Z,78.76
2022-11-29T01:26:47.092Z,78.69
2022-11-29T01:31:48.937Z,78.80
2022-11-29T01:36:50.720Z,78.83
2022-11-29T01:41:52.679Z,78.91
2022-11-29T01:46:56.304Z,78.84
2022-11-29T01:52:00.795Z,78.68
2022-11-29T01:57:06.806Z,78.87
2022-11-29T02:02:38.492Z,78.98
2022-11-29T02:07:43.388Z,78.99
2022-11-29T02:13:12.670Z,79.12
2022-11-29T02:18:34.510Z,79.06
2022-11-29T02:24:00.609Z,79.26
2022-11-29T02:29:05.514Z,79.08
2022-11-29T02:34:07.409Z,79.29
2022-11-29T02:39:30.537Z,79.19
2022-11-29T02:44:51.036Z,79.24
2022-11-29T02:50:19.386Z,79.19
2022-11-29T02:55:29.922Z,79.32
2022-11-29T03:00:40.021Z,79.45
2022-11-29T03:05:51.058Z,79.41
2022-11-29T03:10:58.695Z,79.76
2022-11-29T03:16:11.706Z,79.75
2022-11-29T03:21:34.873Z,79.98
2022-11-29T03:26:44.448Z,80.10
2022-11-29T03:32:04.019Z,80.11
2022-11-29T03:37:13.390Z,80.27
2022-11-29T03:42:21.703Z,80.42
2022-11-29T03:47:28.966Z,80.28
2022-11-29T03:52:51.183Z,80.51
2022-11-29T03:58:09.783Z,80.56
2022-11-29T04:03:48.012Z,80.49
2022-11-29T04:09:08.593Z,80.71
2022-11-29T04:14:33.696Z,80.76
2022-11-29T04:20:02.655Z,80.94
2022-11-29T04:25:16.211Z,80.78
2022-11-29T04:30:25.283Z,80.96
2022-11-29T04:35:51.863Z,81.09
2022-11-29T04:41:02.387Z,81.14
2022-11-29T04:46:31.847Z,81.13
2022-11-29T04:51:49.748Z,81.41
2022-11-29T04:57:00.751Z,81.44
2022-11-29T05:02:10.310Z,81.40
2022-11-29T05:07:28.051Z,81.39
2022-11-29T05:12:39.284Z,81.36
2022-11-29T05:18:00.424Z,81.65
2022-11-29T05:23:08.190Z,81.54
2022-11-29T05:28:30.082Z,81.48
2022-11-29T05:33:34.671Z,81.56
2022-11-29T05:39:07.968Z,81.43
2022-11-29T05:44:19.871Z,81.46
2022-11-29T05:49:39.905Z,81.76
2022-11-29T05:55:05.795Z,81.63
2022-11-29T06:00:10.898Z,81.82
2022-11-29T06:05:31.011Z,81.43
2022-11-29T06:10:40.212Z,81.76
2022-11-29T06:16:09.755Z,81.80
2022-11-29T06:21:41.504Z,81.64
2022-11-29T06:26:55.156Z,81.64
2022-11-29T06:32:44.956Z,81.63
2022-11-29T06:37:51.390Z,81.59
2022-11-29T06:42:53.215Z,81.37
2022-11-29T06:48:02.679Z,81.77
2022-11-29T06:53:23.999Z,81.88
2022-11-29T06:58:53.405Z,81.81
2022-11-29T07:04:05.659Z,81.82
2022-11-29T07:09:17.778Z,81.69
2022-11-29T07:14:20.026Z,81.59
2022-11-29T07:19:30.649Z,81.74
2022-11-29T07:24:38.978Z,81.71
2022-11-29T07:29:49.875Z,81.98
2022-11-29T07:35:00.664Z,81.81
2022-11-29T07:40:23.127Z,82.00
2022-11-29T07:45:32.839Z,81.91
2022-11-29T07:50:36.032Z,81.83
2022-11-29T07:55:37.902Z,81.79
2022-11-29T08:00:40.547Z,81.81
2022-11-29T08:05:47.467Z,81.83
2022-11-29T08:10:49.462Z,81.86
2022-11-29T08:15:51.316Z,81.92
2022-11-29T08:20:53.233Z,81.88
2022-11-29T08:26:00.436Z,81.80
2022-11-29T08:31:07.825Z,81.93
2022-11-29T08:36:16.358Z,81.98
2022-11-29T08:41:18.579Z,82.04
2022-11-29T08:46:20.630Z,81.98
2022-11-29T08:51:22.515Z,81.87
2022-11-29T08:57:09.983Z,81.95
2022-11-29T09:01:46.604Z,81.86
2022-11-29T09:06:51.436Z,81.92
2022-11-29T09:11:53.353Z,82.24
2022-11-29T09:16:55.196Z,82.15
2022-11-29T09:21:57.178Z,82.22
2022-11-29T09:27:00.120Z,82.09
2022-11-29T09:32:02.085Z,81.95
2022-11-29T09:37:05.783Z,82.13
2022-11-29T09:42:29.505Z,82.23
2022-11-29T09:48:14.287Z,81.96
2022-11-29T09:53:33.079Z,82.04
2022-11-29T09:58:47.293Z,81.93
2022-11-29T10:03:53.055Z,81.91
2022-11-29T10:09:21.133Z,81.63
2022-11-29T10:14:30.169Z,81.77
2022-11-29T10:19:41.224Z,81.94
2022-11-29T10:24:49.898Z,81.84
2022-11-29T10:29:52.185Z,81.42
2022-11-29T10:34:53.938Z,81.36
2022-11-29T10:40:04.328Z,81.41
2022-11-29T10:45:34.343Z,81.31
2022-11-29T10:50:37.634Z,81.24
2022-11-29T10:55:59.052Z,81.11
2022-11-29T11:01:08.662Z,81.39
2022-11-29T11:06:13.680Z,81.08
2022-11-29T11:11:28.482Z,81.20
2022-11-29T11:16:35.719Z,80.89
2022-11-29T11:21:39.696Z,81.00
2022-11-29T11:26:44.419Z,80.92
2022-11-29T11:31:57.185Z,80.84
2022-11-29T11:37:23.140Z,80.83
2022-11-29T11:42:39.595Z,80.78
2022-11-29T11:47:44.467Z,80.72
2022-11-29T11:52:54.059Z,80.63
2022-11-29T11:58:10.193Z,80.80
2022-11-29T12:03:39.996Z,80.78
2022-11-29T12:08:43.737Z,80.68
2022-11-29T12:13:51.054Z,80.76
2022-11-29T12:19:17.276Z,80.55
2022-11-29T12:24:24.904Z,80.50
2022-11-29T12:29:33.372Z,80.51
2022-11-29T12:35:02.212Z,80.46
2022-11-29T12:40:45.594Z,80.69
2022-11-29T12:46:06.220Z,80.52
2022-11-29T12:51:28.535Z,80.53
2022-11-29T12:56:58.650Z,80.46
2022-11-29T13:02:24.269Z,80.44
2022-11-29T13:07:38.395Z,80.20
2022-11-29T13:12:45.202Z,80.42
2022-11-29T13:18:04.185Z,80.26
2022-11-29T13:23:14.862Z,80.32
2022-11-29T13:28:29.826Z,80.20
2022-11-29T13:33:34.202Z,80.29
2022-11-29T13:38:38.681Z,80.03
2022-11-29T13:43:55.593Z,80.08
2022-11-29T13:48:57.584Z,80.12
2022-11-29T13:54:06.820Z,80.29
2022-11-29T13:59:15.423Z,80.02
2022-11-29T14:04:23.464Z,80.02
2022-11-29T14:09:34.818Z,80.02
2022-11-29T14:14:57.210Z,80.14
2022-11-29T14:20:24.912Z,80.23
2022-11-29T14:25:50.578Z,80.07
2022-11-29T14:30:54.231Z,79.95
2022-11-29T14:36:07.714Z,80.06
2022-11-29T14:41:21.531Z,79.76
2022-11-29T14:46:29.676Z,80.08
2022-11-29T14:51:34.431Z,80.01
2022-11-29T14:56:47.473Z,79.94
2022-11-29T15:01:50.450Z,79.93
2022-11-29T15:06:57.044Z,79.83
2022-11-29T15:12:10.323Z,79.92
2022-11-29T15:17:50.323Z,79.70
2022-11-29T15:22:55.709Z,79.78
2022-11-29T15:27:58.698Z,79.95
2022-11-29T15:33:03.676Z,79.79
2022-11-29T15:38:05.589Z,79.71
2022-11-29T15:43:26.651Z,79.84
2022-11-29T15:48:33.929Z,79.82
2022-11-29T15:53:41.651Z,79.80
2022-11-29T15:58:46.319Z,79.56
2022-11-29T16:03:53.660Z,79.96
2022-11-29T16:08:56.030Z,79.67
2022-11-29T16:14:05.395Z,79.57
2022-11-29T16:19:18.867Z,79.85
2022-11-29T16:24:21.903Z,79.69
2022-11-29T16:29:33.475Z,79.75
2022-11-29T16:34:35.403Z,79.71
2022-11-29T16:39:39.049Z,79.88
2022-11-29T16:44:40.908Z,79.81
2022-11-29T16:49:42.755Z,79.62
2022-11-29T16:54:44.793Z,79.80
2022-11-29T16:59:47.400Z,79.62
2022-11-29T17:04:51.338Z,79.78
2022-11-29T17:09:53.928Z,79.84
2022-11-29T17:14:56.146Z,79.53
2022-11-29T17:19:57.958Z,79.89
2022-11-29T17:25:00.763Z,79.77
2022-11-29T17:30:03.568Z,79.93
2022-11-29T17:35:05.798Z,79.81
2022-11-29T17:40:08.515Z,79.89
2022-11-29T17:45:10.766Z,79.55
2022-11-29T17:50:12.824Z,79.71
2022-11-29T17:55:19.193Z,79.71
2022-11-29T18:00:22.823Z,79.38
2022-11-29T18:05:26.248Z,79.43
2022-11-29T18:10:30.698Z,79.63
2022-11-29T18:15:35.740Z,79.37
2022-11-29T18:20:37.605Z,79.48
2022-11-29T18:25:40.093Z,79.41
2022-11-29T18:30:42.347Z,79.27
2022-11-29T18:35:44.353Z,79.44
2022-11-29T18:40:46.279Z,79.45
2022-11-29T18:45:48.240Z,79.08
2022-11-29T18:50:50.285Z,79.32
2022-11-29T18:56:10.330Z,79.28
2022-11-29T19:01:18.726Z,78.95
2022-11-29T19:06:26.353Z,79.22
2022-11-29T19:11:30.483Z,79.11
2022-11-29T19:16:34.852Z,79.22
2022-11-29T19:21:37.868Z,79.35
2022-11-29T19:26:39.887Z,79.15
2022-11-29T19:31:42.772Z,79.26
2022-11-29T19:36:45.477Z,79.07
2022-11-29T19:41:48.159Z,79.08
2022-11-29T19:46:50.255Z,79.02
2022-11-29T19:51:52.433Z,79.00
2022-11-29T19:56:55.869Z,79.06
2022-11-29T20:01:58.058Z,79.11
2022-11-29T20:07:02.752Z,78.73
2022-11-29T20:12:04.665Z,79.02
2022-11-29T20:17:06.752Z,78.92
2022-11-29T20:22:08.501Z,79.03
2022-11-29T20:27:10.436Z,78.75
2022-11-29T20:32:12.337Z,79.02
2022-11-29T20:37:39.179Z,78.71
2022-11-29T20:42:49.747Z,78.70
2022-11-29T20:48:13.183Z,78.79
2022-11-29T20:53:34.419Z,78.80
2022-11-29T20:58:36.619Z,78.67
2022-11-29T21:03:38.447Z,78.59
2022-11-29T21:08:40.276Z,78.71
2022-11-29T21:13:42.386Z,78.59
2022-11-29T21:18:44.469Z,78.50
2022-11-29T21:24:06.764Z,78.60
2022-11-29T21:29:20.320Z,78.46
2022-11-29T21:34:22.558Z,78.40
2022-11-29T21:39:34.908Z,78.47
2022-11-29T21:44:36.682Z,78.27
2022-11-29T21:49:39.354Z,78.49
2022-11-29T21:54:41.316Z,78.45
2022-11-29T21:59:43.255Z,78.49
2022-11-29T22:04:45.839Z,78.41
2022-11-29T22:09:48.927Z,78.33
2022-11-29T22:14:50.707Z,78.29
2022-11-29T22:19:52.501Z,78.49
2022-11-29T22:24:54.240Z,78.53
2022-11-29T22:29:56.085Z,78.18
2022-11-29T22:34:57.908Z,78.37
2022-11-29T22:39:59.600Z,78.60
2022-11-29T22:45:03.887Z,78.63
2022-11-29T22:50:06.305Z,78.72
2022-11-29T22:55:08.706Z,78.62
2022-11-29T23:00:11.456Z,78.72
2022-11-29T23:05:13.303Z,78.63
2022-11-29T23:10:15.322Z,78.80
2022-11-29T23:15:17.072Z,78.62
2022-11-29T23:20:18.830Z,78.59
2022-11-29T23:25:20.653Z,78.22
2022-11-29T23:30:22.390Z,78.35
2022-11-29T23:35:24.163Z,78.39
2022-11-29T23:40:25.935Z,78.67
2022-11-29T23:45:28.022Z,78.28
2022-11-29T23:50:29.989Z,78.40
2022-11-29T23:55:31.850Z,78.39
